sensor_id;sensor_type;location;lat;lon;timestamp;P1;durP1;ratioP1;P2;durP2;ratioP2
42260;SDS011;27926;48.062;7.474;2023-02-16T00:01:54;86.18;;;34.75;;
42260;SDS011;27926;48.062;7.474;2023-02-16T00:06:49;88.70;;;36.13;;
42260;SDS011;27926;48.062;7.474;2023-02-16T00:09:15;83.63;;;34.70;;
42260;SDS011;27926;48.062;7.474;2023-02-16T00:11:40;81.53;;;36.92;;
42260;SDS011;27926;48.062;7.474;2023-02-16T00:14:24;103.35;;;41.33;;
42260;SDS011;27926;48.062;7.474;2023-02-16T00:16:49;166.05;;;46.70;;
42260;SDS011;27926;48.062;7.474;2023-02-16T00:21:43;124.05;;;48.78;;
42260;SDS011;27926;48.062;7.474;2023-02-16T00:24:08;121.85;;;47.13;;
42260;SDS011;27926;48.062;7.474;2023-02-16T00:26:33;126.30;;;47.30;;
42260;SDS011;27926;48.062;7.474;2023-02-16T00:28:59;134.77;;;47.67;;
42260;SDS011;27926;48.062;7.474;2023-02-16T00:31:25;122.03;;;47.85;;
42260;SDS011;27926;48.062;7.474;2023-02-16T00:33:52;133.48;;;45.92;;
42260;SDS011;27926;48.062;7.474;2023-02-16T00:36:16;121.28;;;47.20;;
42260;SDS011;27926;48.062;7.474;2023-02-16T00:38:41;128.17;;;49.57;;
42260;SDS011;27926;48.062;7.474;2023-02-16T00:41:09;128.00;;;49.07;;
42260;SDS011;27926;48.062;7.474;2023-02-16T00:43:59;98.90;;;43.35;;
42260;SDS011;27926;48.062;7.474;2023-02-16T00:46:23;115.70;;;44.40;;
42260;SDS011;27926;48.062;7.474;2023-02-16T00:48:48;107.63;;;40.70;;
42260;SDS011;27926;48.062;7.474;2023-02-16T00:51:12;106.30;;;40.17;;
42260;SDS011;27926;48.062;7.474;2023-02-16T00:53:37;94.57;;;38.37;;
42260;SDS011;27926;48.062;7.474;2023-02-16T00:56:02;94.90;;;40.03;;
42260;SDS011;27926;48.062;7.474;2023-02-16T00:58:27;89.27;;;35.30;;
42260;SDS011;27926;48.062;7.474;2023-02-16T01:00:57;99.88;;;38.22;;
42260;SDS011;27926;48.062;7.474;2023-02-16T01:03:27;84.70;;;34.03;;
42260;SDS011;27926;48.062;7.474;2023-02-16T01:05:55;93.53;;;40.40;;
42260;SDS011;27926;48.062;7.474;2023-02-16T01:08:38;81.90;;;34.75;;
42260;SDS011;27926;48.062;7.474;2023-02-16T01:11:21;101.25;;;37.50;;
42260;SDS011;27926;48.062;7.474;2023-02-16T01:13:47;91.90;;;35.80;;
42260;SDS011;27926;48.062;7.474;2023-02-16T01:16:17;80.75;;;33.25;;
42260;SDS011;27926;48.062;7.474;2023-02-16T01:18:43;88.03;;;33.17;;
42260;SDS011;27926;48.062;7.474;2023-02-16T01:21:08;82.63;;;34.90;;
42260;SDS011;27926;48.062;7.474;2023-02-16T01:23:36;89.20;;;34.23;;
42260;SDS011;27926;48.062;7.474;2023-02-16T01:26:01;70.43;;;33.10;;
42260;SDS011;27926;48.062;7.474;2023-02-16T01:28:26;89.28;;;35.15;;
42260;SDS011;27926;48.062;7.474;2023-02-16T01:30:51;80.10;;;34.00;;
42260;SDS011;27926;48.062;7.474;2023-02-16T01:33:17;85.00;;;34.30;;
42260;SDS011;27926;48.062;7.474;2023-02-16T01:35:42;79.80;;;33.90;;
42260;SDS011;27926;48.062;7.474;2023-02-16T01:38:12;82.05;;;33.67;;
42260;SDS011;27926;48.062;7.474;2023-02-16T01:40:51;87.40;;;35.70;;
42260;SDS011;27926;48.062;7.474;2023-02-16T01:43:45;78.28;;;34.75;;
42260;SDS011;27926;48.062;7.474;2023-02-16T01:46:15;86.88;;;37.10;;
42260;SDS011;27926;48.062;7.474;2023-02-16T01:48:44;84.35;;;36.70;;
42260;SDS011;27926;48.062;7.474;2023-02-16T01:53:45;81.18;;;35.60;;
42260;SDS011;27926;48.062;7.474;2023-02-16T01:56:57;83.18;;;35.50;;
42260;SDS011;27926;48.062;7.474;2023-02-16T02:02:01;82.22;;;32.53;;
42260;SDS011;27926;48.062;7.474;2023-02-16T02:04:28;71.22;;;31.85;;
42260;SDS011;27926;48.062;7.474;2023-02-16T02:07:24;85.22;;;33.45;;
42260;SDS011;27926;48.062;7.474;2023-02-16T02:12:40;80.38;;;31.63;;
42260;SDS011;27926;48.062;7.474;2023-02-16T02:15:27;81.35;;;31.42;;
42260;SDS011;27926;48.062;7.474;2023-02-16T02:17:54;76.65;;;30.80;;
42260;SDS011;27926;48.062;7.474;2023-02-16T02:34:21;75.50;;;28.70;;
42260;SDS011;27926;48.062;7.474;2023-02-16T02:37:10;71.93;;;30.55;;
42260;SDS011;27926;48.062;7.474;2023-02-16T02:39:45;86.57;;;31.27;;
42260;SDS011;27926;48.062;7.474;2023-02-16T02:45:53;85.37;;;32.83;;
42260;SDS011;27926;48.062;7.474;2023-02-16T02:48:37;88.72;;;35.95;;
42260;SDS011;27926;48.062;7.474;2023-02-16T02:51:12;88.73;;;36.03;;
42260;SDS011;27926;48.062;7.474;2023-02-16T02:54:00;78.90;;;33.85;;
42260;SDS011;27926;48.062;7.474;2023-02-16T02:56:50;74.40;;;31.80;;
42260;SDS011;27926;48.062;7.474;2023-02-16T02:59:38;80.25;;;31.35;;
42260;SDS011;27926;48.062;7.474;2023-02-16T03:02:25;73.60;;;31.27;;
42260;SDS011;27926;48.062;7.474;2023-02-16T03:04:51;69.10;;;30.08;;
42260;SDS011;27926;48.062;7.474;2023-02-16T03:07:19;79.53;;;30.50;;
42260;SDS011;27926;48.062;7.474;2023-02-16T03:10:06;76.53;;;28.42;;
42260;SDS011;27926;48.062;7.474;2023-02-16T03:12:51;69.75;;;30.30;;
42260;SDS011;27926;48.062;7.474;2023-02-16T03:15:16;71.27;;;30.27;;
42260;SDS011;27926;48.062;7.474;2023-02-16T03:17:40;70.53;;;31.10;;
42260;SDS011;27926;48.062;7.474;2023-02-16T03:20:24;77.50;;;31.23;;
42260;SDS011;27926;48.062;7.474;2023-02-16T03:23:07;72.22;;;31.55;;
42260;SDS011;27926;48.062;7.474;2023-02-16T03:25:51;71.07;;;29.48;;
42260;SDS011;27926;48.062;7.474;2023-02-16T03:28:34;75.47;;;30.20;;
42260;SDS011;27926;48.062;7.474;2023-02-16T03:31:21;73.32;;;28.80;;
42260;SDS011;27926;48.062;7.474;2023-02-16T03:33:50;69.38;;;30.75;;
42260;SDS011;27926;48.062;7.474;2023-02-16T03:36:17;86.28;;;36.33;;
42260;SDS011;27926;48.062;7.474;2023-02-16T03:38:42;89.40;;;32.17;;
42260;SDS011;27926;48.062;7.474;2023-02-16T03:41:06;85.77;;;36.03;;
42260;SDS011;27926;48.062;7.474;2023-02-16T03:43:31;78.33;;;33.73;;
42260;SDS011;27926;48.062;7.474;2023-02-16T03:45:55;67.63;;;30.97;;
42260;SDS011;27926;48.062;7.474;2023-02-16T03:48:20;82.83;;;32.37;;
42260;SDS011;27926;48.062;7.474;2023-02-16T03:50:45;69.60;;;30.03;;
42260;SDS011;27926;48.062;7.474;2023-02-16T03:53:09;70.30;;;30.97;;
42260;SDS011;27926;48.062;7.474;2023-02-16T03:55:38;67.57;;;28.90;;
42260;SDS011;27926;48.062;7.474;2023-02-16T03:58:05;68.25;;;28.35;;
42260;SDS011;27926;48.062;7.474;2023-02-16T04:00:31;74.70;;;31.65;;
42260;SDS011;27926;48.062;7.474;2023-02-16T04:02:56;66.90;;;30.40;;
42260;SDS011;27926;48.062;7.474;2023-02-16T04:05:20;76.93;;;32.17;;
42260;SDS011;27926;48.062;7.474;2023-02-16T04:07:45;73.13;;;31.53;;
42260;SDS011;27926;48.062;7.474;2023-02-16T04:10:10;78.57;;;31.30;;
42260;SDS011;27926;48.062;7.474;2023-02-16T04:12:35;68.27;;;30.30;;
42260;SDS011;27926;48.062;7.474;2023-02-16T04:14:59;70.70;;;31.40;;
42260;SDS011;27926;48.062;7.474;2023-02-16T04:17:24;89.67;;;35.07;;
42260;SDS011;27926;48.062;7.474;2023-02-16T04:19:48;83.03;;;35.43;;
42260;SDS011;27926;48.062;7.474;2023-02-16T04:22:14;77.45;;;32.45;;
42260;SDS011;27926;48.062;7.474;2023-02-16T04:24:38;69.93;;;30.07;;
42260;SDS011;27926;48.062;7.474;2023-02-16T04:27:03;71.97;;;30.17;;
42260;SDS011;27926;48.062;7.474;2023-02-16T04:29:27;68.33;;;29.63;;
42260;SDS011;27926;48.062;7.474;2023-02-16T04:31:52;71.23;;;30.47;;
42260;SDS011;27926;48.062;7.474;2023-02-16T04:34:17;70.87;;;30.00;;
42260;SDS011;27926;48.062;7.474;2023-02-16T04:36:41;74.27;;;30.47;;
42260;SDS011;27926;48.062;7.474;2023-02-16T04:39:06;71.77;;;30.90;;
42260;SDS011;27926;48.062;7.474;2023-02-16T04:41:31;64.10;;;29.27;;
42260;SDS011;27926;48.062;7.474;2023-02-16T04:43:55;69.60;;;29.33;;
42260;SDS011;27926;48.062;7.474;2023-02-16T04:46:20;73.83;;;29.90;;
42260;SDS011;27926;48.062;7.474;2023-02-16T04:48:45;68.50;;;30.60;;
42260;SDS011;27926;48.062;7.474;2023-02-16T04:51:10;73.45;;;30.77;;
42260;SDS011;27926;48.062;7.474;2023-02-16T04:53:35;70.63;;;30.13;;
42260;SDS011;27926;48.062;7.474;2023-02-16T04:55:59;70.90;;;30.70;;
42260;SDS011;27926;48.062;7.474;2023-02-16T04:58:24;60.57;;;28.83;;
42260;SDS011;27926;48.062;7.474;2023-02-16T05:00:49;70.40;;;28.80;;
42260;SDS011;27926;48.062;7.474;2023-02-16T05:03:13;71.13;;;30.30;;
42260;SDS011;27926;48.062;7.474;2023-02-16T05:05:38;83.40;;;31.10;;
42260;SDS011;27926;48.062;7.474;2023-02-16T05:08:03;67.88;;;29.02;;
42260;SDS011;27926;48.062;7.474;2023-02-16T05:10:28;77.13;;;29.30;;
42260;SDS011;27926;48.062;7.474;2023-02-16T05:12:52;69.77;;;31.67;;
42260;SDS011;27926;48.062;7.474;2023-02-16T05:15:36;74.55;;;29.48;;
42260;SDS011;27926;48.062;7.474;2023-02-16T05:18:00;62.57;;;26.53;;
42260;SDS011;27926;48.062;7.474;2023-02-16T05:20:25;56.70;;;26.43;;
42260;SDS011;27926;48.062;7.474;2023-02-16T05:23:10;70.43;;;29.75;;
42260;SDS011;27926;48.062;7.474;2023-02-16T05:25:34;65.63;;;29.87;;
42260;SDS011;27926;48.062;7.474;2023-02-16T05:27:59;65.30;;;28.83;;
42260;SDS011;27926;48.062;7.474;2023-02-16T05:30:23;67.73;;;27.43;;
42260;SDS011;27926;48.062;7.474;2023-02-16T05:32:48;87.00;;;35.17;;
42260;SDS011;27926;48.062;7.474;2023-02-16T05:35:12;60.90;;;29.03;;
42260;SDS011;27926;48.062;7.474;2023-02-16T05:37:37;64.30;;;27.70;;
42260;SDS011;27926;48.062;7.474;2023-02-16T05:40:02;75.10;;;30.07;;
42260;SDS011;27926;48.062;7.474;2023-02-16T05:42:26;67.10;;;29.10;;
42260;SDS011;27926;48.062;7.474;2023-02-16T05:44:51;57.63;;;26.63;;
42260;SDS011;27926;48.062;7.474;2023-02-16T05:47:16;56.97;;;25.40;;
42260;SDS011;27926;48.062;7.474;2023-02-16T05:49:40;65.13;;;27.67;;
42260;SDS011;27926;48.062;7.474;2023-02-16T05:52:06;59.63;;;26.73;;
42260;SDS011;27926;48.062;7.474;2023-02-16T05:54:31;60.63;;;26.97;;
42260;SDS011;27926;48.062;7.474;2023-02-16T05:56:55;55.70;;;25.47;;
42260;SDS011;27926;48.062;7.474;2023-02-16T05:59:20;62.77;;;27.90;;
42260;SDS011;27926;48.062;7.474;2023-02-16T06:01:45;59.70;;;26.57;;
42260;SDS011;27926;48.062;7.474;2023-02-16T06:04:10;64.88;;;27.10;;
42260;SDS011;27926;48.062;7.474;2023-02-16T06:06:36;56.17;;;26.33;;
42260;SDS011;27926;48.062;7.474;2023-02-16T06:09:01;70.28;;;29.58;;
42260;SDS011;27926;48.062;7.474;2023-02-16T06:11:27;64.35;;;26.67;;
42260;SDS011;27926;48.062;7.474;2023-02-16T06:14:21;66.72;;;27.27;;
42260;SDS011;27926;48.062;7.474;2023-02-16T06:16:46;77.43;;;32.13;;
42260;SDS011;27926;48.062;7.474;2023-02-16T06:19:13;61.72;;;26.80;;
42260;SDS011;27926;48.062;7.474;2023-02-16T06:21:39;74.88;;;29.58;;
42260;SDS011;27926;48.062;7.474;2023-02-16T06:26:29;62.20;;;25.27;;
42260;SDS011;27926;48.062;7.474;2023-02-16T06:28:56;67.00;;;28.57;;
42260;SDS011;27926;48.062;7.474;2023-02-16T06:31:21;75.75;;;28.92;;
42260;SDS011;27926;48.062;7.474;2023-02-16T06:33:46;77.60;;;30.05;;
42260;SDS011;27926;48.062;7.474;2023-02-16T06:36:11;69.30;;;29.47;;
42260;SDS011;27926;48.062;7.474;2023-02-16T06:38:35;67.43;;;28.93;;
42260;SDS011;27926;48.062;7.474;2023-02-16T06:41:00;72.73;;;27.97;;
42260;SDS011;27926;48.062;7.474;2023-02-16T06:43:25;65.60;;;27.67;;
42260;SDS011;27926;48.062;7.474;2023-02-16T06:45:50;63.27;;;27.73;;
42260;SDS011;27926;48.062;7.474;2023-02-16T06:48:14;60.97;;;28.63;;
42260;SDS011;27926;48.062;7.474;2023-02-16T06:50:39;66.27;;;29.57;;
42260;SDS011;27926;48.062;7.474;2023-02-16T06:53:03;64.53;;;28.83;;
42260;SDS011;27926;48.062;7.474;2023-02-16T06:55:28;63.37;;;28.27;;
42260;SDS011;27926;48.062;7.474;2023-02-16T06:57:57;60.83;;;27.63;;
42260;SDS011;27926;48.062;7.474;2023-02-16T07:00:21;61.87;;;26.70;;
42260;SDS011;27926;48.062;7.474;2023-02-16T07:02:46;68.00;;;30.17;;
42260;SDS011;27926;48.062;7.474;2023-02-16T07:05:11;99.70;;;38.87;;
42260;SDS011;27926;48.062;7.474;2023-02-16T07:07:35;95.10;;;36.27;;
42260;SDS011;27926;48.062;7.474;2023-02-16T07:10:00;95.47;;;41.50;;
42260;SDS011;27926;48.062;7.474;2023-02-16T07:12:25;75.13;;;32.35;;
42260;SDS011;27926;48.062;7.474;2023-02-16T07:14:50;101.10;;;42.33;;
42260;SDS011;27926;48.062;7.474;2023-02-16T07:17:14;74.50;;;32.87;;
42260;SDS011;27926;48.062;7.474;2023-02-16T07:19:40;75.18;;;32.50;;
42260;SDS011;27926;48.062;7.474;2023-02-16T07:22:04;81.13;;;32.93;;
42260;SDS011;27926;48.062;7.474;2023-02-16T07:24:29;77.73;;;37.03;;
42260;SDS011;27926;48.062;7.474;2023-02-16T07:26:53;71.57;;;32.27;;
42260;SDS011;27926;48.062;7.474;2023-02-16T07:29:18;72.28;;;31.60;;
42260;SDS011;27926;48.062;7.474;2023-02-16T07:31:43;162.40;;;63.63;;
42260;SDS011;27926;48.062;7.474;2023-02-16T07:34:08;150.43;;;61.67;;
42260;SDS011;27926;48.062;7.474;2023-02-16T07:36:32;126.30;;;54.73;;
42260;SDS011;27926;48.062;7.474;2023-02-16T07:38:57;123.13;;;51.33;;
42260;SDS011;27926;48.062;7.474;2023-02-16T07:41:21;115.53;;;50.00;;
42260;SDS011;27926;48.062;7.474;2023-02-16T07:43:46;126.50;;;49.60;;
42260;SDS011;27926;48.062;7.474;2023-02-16T07:46:10;106.63;;;46.90;;
42260;SDS011;27926;48.062;7.474;2023-02-16T07:48:35;112.63;;;46.23;;
42260;SDS011;27926;48.062;7.474;2023-02-16T07:51:00;92.43;;;40.07;;
42260;SDS011;27926;48.062;7.474;2023-02-16T07:53:25;106.00;;;39.08;;
42260;SDS011;27926;48.062;7.474;2023-02-16T07:55:49;101.53;;;39.63;;
42260;SDS011;27926;48.062;7.474;2023-02-16T07:58:14;86.80;;;34.60;;
42260;SDS011;27926;48.062;7.474;2023-02-16T08:00:50;79.47;;;35.83;;
42260;SDS011;27926;48.062;7.474;2023-02-16T08:03:30;92.97;;;38.45;;
42260;SDS011;27926;48.062;7.474;2023-02-16T08:05:55;103.07;;;41.60;;
42260;SDS011;27926;48.062;7.474;2023-02-16T08:08:22;86.13;;;37.92;;
42260;SDS011;27926;48.062;7.474;2023-02-16T08:10:47;111.20;;;41.00;;
42260;SDS011;27926;48.062;7.474;2023-02-16T08:13:11;85.57;;;39.83;;
42260;SDS011;27926;48.062;7.474;2023-02-16T08:15:36;99.23;;;40.80;;
42260;SDS011;27926;48.062;7.474;2023-02-16T08:18:00;87.10;;;37.53;;
42260;SDS011;27926;48.062;7.474;2023-02-16T08:20:25;77.83;;;34.20;;
42260;SDS011;27926;48.062;7.474;2023-02-16T08:22:52;60.07;;;28.33;;
42260;SDS011;27926;48.062;7.474;2023-02-16T08:25:17;55.38;;;27.25;;
42260;SDS011;27926;48.062;7.474;2023-02-16T08:27:41;52.03;;;25.87;;
42260;SDS011;27926;48.062;7.474;2023-02-16T08:30:06;54.93;;;27.10;;
42260;SDS011;27926;48.062;7.474;2023-02-16T08:32:35;54.20;;;24.75;;
42260;SDS011;27926;48.062;7.474;2023-02-16T08:35:00;49.73;;;23.17;;
42260;SDS011;27926;48.062;7.474;2023-02-16T08:37:24;55.70;;;25.30;;
42260;SDS011;27926;48.062;7.474;2023-02-16T08:39:49;57.00;;;25.48;;
42260;SDS011;27926;48.062;7.474;2023-02-16T08:42:14;47.28;;;23.58;;
42260;SDS011;27926;48.062;7.474;2023-02-16T08:44:40;50.17;;;24.38;;
42260;SDS011;27926;48.062;7.474;2023-02-16T08:47:05;44.95;;;23.27;;
42260;SDS011;27926;48.062;7.474;2023-02-16T08:49:29;50.70;;;24.92;;
42260;SDS011;27926;48.062;7.474;2023-02-16T08:51:55;48.75;;;23.27;;
42260;SDS011;27926;48.062;7.474;2023-02-16T08:54:22;47.50;;;23.13;;
42260;SDS011;27926;48.062;7.474;2023-02-16T08:56:50;49.00;;;22.73;;
42260;SDS011;27926;48.062;7.474;2023-02-16T08:59:15;46.90;;;24.08;;
42260;SDS011;27926;48.062;7.474;2023-02-16T09:01:41;47.70;;;22.33;;
42260;SDS011;27926;48.062;7.474;2023-02-16T09:04:06;50.05;;;22.95;;
42260;SDS011;27926;48.062;7.474;2023-02-16T09:06:31;40.42;;;21.63;;
42260;SDS011;27926;48.062;7.474;2023-02-16T09:09:01;47.22;;;22.33;;
42260;SDS011;27926;48.062;7.474;2023-02-16T09:11:27;41.25;;;22.17;;
42260;SDS011;27926;48.062;7.474;2023-02-16T09:13:52;52.28;;;22.55;;
42260;SDS011;27926;48.062;7.474;2023-02-16T09:16:18;44.13;;;22.17;;
42260;SDS011;27926;48.062;7.474;2023-02-16T09:18:45;41.17;;;20.40;;
42260;SDS011;27926;48.062;7.474;2023-02-16T09:21:11;40.25;;;20.38;;
42260;SDS011;27926;48.062;7.474;2023-02-16T09:23:41;36.58;;;18.73;;
42260;SDS011;27926;48.062;7.474;2023-02-16T09:26:11;40.30;;;20.30;;
42260;SDS011;27926;48.062;7.474;2023-02-16T09:28:36;33.90;;;16.77;;
42260;SDS011;27926;48.062;7.474;2023-02-16T09:31:11;37.20;;;18.27;;
42260;SDS011;27926;48.062;7.474;2023-02-16T09:33:38;33.25;;;17.23;;
42260;SDS011;27926;48.062;7.474;2023-02-16T09:36:04;34.60;;;17.02;;
42260;SDS011;27926;48.062;7.474;2023-02-16T09:38:33;33.25;;;15.77;;
42260;SDS011;27926;48.062;7.474;2023-02-16T09:40:57;29.75;;;15.63;;
42260;SDS011;27926;48.062;7.474;2023-02-16T09:46:07;26.38;;;14.98;;
42260;SDS011;27926;48.062;7.474;2023-02-16T09:48:37;34.03;;;16.30;;
42260;SDS011;27926;48.062;7.474;2023-02-16T09:51:09;30.85;;;15.02;;
42260;SDS011;27926;48.062;7.474;2023-02-16T09:53:40;34.58;;;14.98;;
42260;SDS011;27926;48.062;7.474;2023-02-16T10:10:06;25.05;;;11.65;;
42260;SDS011;27926;48.062;7.474;2023-02-16T10:12:38;32.17;;;11.68;;
42260;SDS011;27926;48.062;7.474;2023-02-16T10:15:16;29.23;;;11.38;;
42260;SDS011;27926;48.062;7.474;2023-02-16T10:17:59;28.58;;;11.43;;
42260;SDS011;27926;48.062;7.474;2023-02-16T10:20:37;19.90;;;11.02;;
42260;SDS011;27926;48.062;7.474;2023-02-16T10:23:09;21.20;;;10.65;;
42260;SDS011;27926;48.062;7.474;2023-02-16T10:25:50;20.75;;;9.30;;
42260;SDS011;27926;48.062;7.474;2023-02-16T10:28:18;22.67;;;9.90;;
42260;SDS011;27926;48.062;7.474;2023-02-16T10:30:53;22.90;;;10.20;;
42260;SDS011;27926;48.062;7.474;2023-02-16T10:36:22;22.35;;;9.23;;
42260;SDS011;27926;48.062;7.474;2023-02-16T10:41:51;28.42;;;10.70;;
42260;SDS011;27926;48.062;7.474;2023-02-16T10:44:33;19.17;;;8.98;;
42260;SDS011;27926;48.062;7.474;2023-02-16T10:47:09;22.88;;;10.70;;
42260;SDS011;27926;48.062;7.474;2023-02-16T10:49:51;19.77;;;8.85;;
42260;SDS011;27926;48.062;7.474;2023-02-16T10:52:16;21.58;;;7.70;;
42260;SDS011;27926;48.062;7.474;2023-02-16T10:54:42;19.17;;;8.98;;
42260;SDS011;27926;48.062;7.474;2023-02-16T10:57:10;17.73;;;8.63;;
42260;SDS011;27926;48.062;7.474;2023-02-16T11:00:06;16.90;;;7.93;;
42260;SDS011;27926;48.062;7.474;2023-02-16T11:02:40;18.15;;;8.57;;
42260;SDS011;27926;48.062;7.474;2023-02-16T11:07:53;17.35;;;7.57;;
42260;SDS011;27926;48.062;7.474;2023-02-16T11:13:03;23.73;;;8.40;;
42260;SDS011;27926;48.062;7.474;2023-02-16T11:15:28;27.83;;;9.80;;
42260;SDS011;27926;48.062;7.474;2023-02-16T11:25:40;18.38;;;7.72;;
42260;SDS011;27926;48.062;7.474;2023-02-16T11:28:05;16.58;;;8.45;;
42260;SDS011;27926;48.062;7.474;2023-02-16T11:30:34;20.25;;;8.13;;
42260;SDS011;27926;48.062;7.474;2023-02-16T11:33:05;16.85;;;8.00;;
42260;SDS011;27926;48.062;7.474;2023-02-16T11:35:46;13.20;;;7.35;;
42260;SDS011;27926;48.062;7.474;2023-02-16T11:38:31;13.77;;;7.93;;
42260;SDS011;27926;48.062;7.474;2023-02-16T11:40:57;22.27;;;8.50;;
42260;SDS011;27926;48.062;7.474;2023-02-16T11:43:25;17.65;;;7.78;;
42260;SDS011;27926;48.062;7.474;2023-02-16T11:45:59;18.35;;;8.38;;
42260;SDS011;27926;48.062;7.474;2023-02-16T11:48:37;17.52;;;7.47;;
42260;SDS011;27926;48.062;7.474;2023-02-16T11:51:03;22.73;;;8.43;;
42260;SDS011;27926;48.062;7.474;2023-02-16T11:53:30;17.50;;;7.70;;
42260;SDS011;27926;48.062;7.474;2023-02-16T11:56:16;23.33;;;8.05;;
42260;SDS011;27926;48.062;7.474;2023-02-16T11:59:01;15.45;;;8.05;;
42260;SDS011;27926;48.062;7.474;2023-02-16T12:09:54;21.73;;;7.35;;
42260;SDS011;27926;48.062;7.474;2023-02-16T12:12:29;13.40;;;5.93;;
42260;SDS011;27926;48.062;7.474;2023-02-16T12:15:03;15.40;;;7.05;;
42260;SDS011;27926;48.062;7.474;2023-02-16T12:18:01;11.68;;;6.22;;
42260;SDS011;27926;48.062;7.474;2023-02-16T12:23:40;13.65;;;6.68;;
42260;SDS011;27926;48.062;7.474;2023-02-16T12:31:33;18.42;;;7.28;;
42260;SDS011;27926;48.062;7.474;2023-02-16T12:34:20;14.65;;;6.97;;
42260;SDS011;27926;48.062;7.474;2023-02-16T12:40:17;14.88;;;6.93;;
42260;SDS011;27926;48.062;7.474;2023-02-16T12:45:49;12.35;;;6.32;;
42260;SDS011;27926;48.062;7.474;2023-02-16T12:48:29;17.60;;;6.25;;
42260;SDS011;27926;48.062;7.474;2023-02-16T12:50:57;14.20;;;6.60;;
42260;SDS011;27926;48.062;7.474;2023-02-16T12:56:07;16.90;;;6.05;;
42260;SDS011;27926;48.062;7.474;2023-02-16T12:58:44;12.60;;;6.15;;
42260;SDS011;27926;48.062;7.474;2023-02-16T13:01:17;9.83;;;5.30;;
42260;SDS011;27926;48.062;7.474;2023-02-16T13:03:55;13.05;;;5.63;;
42260;SDS011;27926;48.062;7.474;2023-02-16T13:06:30;13.95;;;6.47;;
42260;SDS011;27926;48.062;7.474;2023-02-16T13:12:04;11.27;;;4.93;;
42260;SDS011;27926;48.062;7.474;2023-02-16T13:14:49;13.18;;;5.78;;
42260;SDS011;27926;48.062;7.474;2023-02-16T13:17:40;14.23;;;5.60;;
42260;SDS011;27926;48.062;7.474;2023-02-16T13:20:11;13.30;;;5.03;;
42260;SDS011;27926;48.062;7.474;2023-02-16T13:25:25;10.05;;;4.78;;
42260;SDS011;27926;48.062;7.474;2023-02-16T13:36:54;9.88;;;4.03;;
42260;SDS011;27926;48.062;7.474;2023-02-16T13:42:57;10.52;;;3.55;;
42260;SDS011;27926;48.062;7.474;2023-02-16T13:45:40;12.63;;;3.95;;
42260;SDS011;27926;48.062;7.474;2023-02-16T13:48:14;7.32;;;3.40;;
42260;SDS011;27926;48.062;7.474;2023-02-16T13:50:45;9.55;;;2.60;;
42260;SDS011;27926;48.062;7.474;2023-02-16T13:53:21;14.63;;;3.72;;
42260;SDS011;27926;48.062;7.474;2023-02-16T14:03:11;5.32;;;2.63;;
42260;SDS011;27926;48.062;7.474;2023-02-16T14:11:58;4.28;;;2.50;;
42260;SDS011;27926;48.062;7.474;2023-02-16T14:14:26;6.07;;;2.70;;
42260;SDS011;27926;48.062;7.474;2023-02-16T14:19:48;9.13;;;2.90;;
42260;SDS011;27926;48.062;7.474;2023-02-16T14:22:18;10.80;;;2.72;;
42260;SDS011;27926;48.062;7.474;2023-02-16T14:24:52;8.93;;;2.20;;
42260;SDS011;27926;48.062;7.474;2023-02-16T14:30:28;6.03;;;2.60;;
42260;SDS011;27926;48.062;7.474;2023-02-16T14:32:56;7.32;;;2.95;;
42260;SDS011;27926;48.062;7.474;2023-02-16T14:35:36;6.88;;;2.33;;
42260;SDS011;27926;48.062;7.474;2023-02-16T14:38:17;7.40;;;2.65;;
42260;SDS011;27926;48.062;7.474;2023-02-16T14:40:50;6.53;;;2.55;;
42260;SDS011;27926;48.062;7.474;2023-02-16T14:46:29;6.40;;;2.00;;
42260;SDS011;27926;48.062;7.474;2023-02-16T14:51:54;7.78;;;2.47;;
42260;SDS011;27926;48.062;7.474;2023-02-16T14:57:13;10.35;;;2.50;;
42260;SDS011;27926;48.062;7.474;2023-02-16T15:02:31;8.52;;;2.45;;
42260;SDS011;27926;48.062;7.474;2023-02-16T15:05:18;6.53;;;2.88;;
42260;SDS011;27926;48.062;7.474;2023-02-16T15:07:45;5.60;;;2.50;;
42260;SDS011;27926;48.062;7.474;2023-02-16T15:10:14;9.75;;;2.42;;
42260;SDS011;27926;48.062;7.474;2023-02-16T15:12:44;19.52;;;3.35;;
42260;SDS011;27926;48.062;7.474;2023-02-16T15:15:16;4.68;;;2.55;;
42260;SDS011;27926;48.062;7.474;2023-02-16T15:17:44;8.57;;;2.80;;
42260;SDS011;27926;48.062;7.474;2023-02-16T15:22:54;7.20;;;2.67;;
42260;SDS011;27926;48.062;7.474;2023-02-16T15:27:52;7.97;;;2.78;;
42260;SDS011;27926;48.062;7.474;2023-02-16T15:30:22;9.07;;;2.33;;
42260;SDS011;27926;48.062;7.474;2023-02-16T15:32:56;11.10;;;2.28;;
42260;SDS011;27926;48.062;7.474;2023-02-16T15:35:25;8.30;;;2.83;;
42260;SDS011;27926;48.062;7.474;2023-02-16T15:38:24;7.80;;;3.05;;
42260;SDS011;27926;48.062;7.474;2023-02-16T15:40:51;9.32;;;2.40;;
42260;SDS011;27926;48.062;7.474;2023-02-16T15:44:03;8.73;;;3.53;;
42260;SDS011;27926;48.062;7.474;2023-02-16T15:46:13;5.95;;;2.65;;
42260;SDS011;27926;48.062;7.474;2023-02-16T15:48:38;6.15;;;2.42;;
42260;SDS011;27926;48.062;7.474;2023-02-16T15:51:12;4.67;;;2.57;;
42260;SDS011;27926;48.062;7.474;2023-02-16T15:53:44;12.10;;;3.15;;
42260;SDS011;27926;48.062;7.474;2023-02-16T15:58:54;8.35;;;3.03;;
42260;SDS011;27926;48.062;7.474;2023-02-16T16:01:24;11.18;;;2.67;;
42260;SDS011;27926;48.062;7.474;2023-02-16T16:03:55;7.97;;;2.80;;
42260;SDS011;27926;48.062;7.474;2023-02-16T16:06:20;9.00;;;2.97;;
42260;SDS011;27926;48.062;7.474;2023-02-16T16:08:45;5.28;;;3.00;;
42260;SDS011;27926;48.062;7.474;2023-02-16T16:11:10;8.68;;;3.67;;
42260;SDS011;27926;48.062;7.474;2023-02-16T16:13:34;11.88;;;2.47;;
42260;SDS011;27926;48.062;7.474;2023-02-16T16:21:13;9.95;;;2.85;;
42260;SDS011;27926;48.062;7.474;2023-02-16T16:23:55;6.70;;;2.60;;
42260;SDS011;27926;48.062;7.474;2023-02-16T16:26:22;8.32;;;3.22;;
42260;SDS011;27926;48.062;7.474;2023-02-16T16:28:47;12.20;;;3.60;;
42260;SDS011;27926;48.062;7.474;2023-02-16T16:31:14;6.55;;;2.75;;
42260;SDS011;27926;48.062;7.474;2023-02-16T16:36:33;7.80;;;2.80;;
42260;SDS011;27926;48.062;7.474;2023-02-16T16:41:43;7.85;;;3.42;;
42260;SDS011;27926;48.062;7.474;2023-02-16T16:44:11;7.07;;;3.28;;
42260;SDS011;27926;48.062;7.474;2023-02-16T16:46:52;10.38;;;3.55;;
42260;SDS011;27926;48.062;7.474;2023-02-16T16:49:16;17.58;;;4.35;;
42260;SDS011;27926;48.062;7.474;2023-02-16T16:51:41;4.32;;;2.70;;
42260;SDS011;27926;48.062;7.474;2023-02-16T16:57:05;9.23;;;3.38;;
42260;SDS011;27926;48.062;7.474;2023-02-16T16:59:40;6.70;;;2.92;;
42260;SDS011;27926;48.062;7.474;2023-02-16T17:02:04;9.77;;;3.50;;
42260;SDS011;27926;48.062;7.474;2023-02-16T17:04:29;11.48;;;3.17;;
42260;SDS011;27926;48.062;7.474;2023-02-16T17:06:53;9.10;;;3.40;;
42260;SDS011;27926;48.062;7.474;2023-02-16T17:09:18;7.40;;;3.40;;
42260;SDS011;27926;48.062;7.474;2023-02-16T17:11:42;8.52;;;3.72;;
42260;SDS011;27926;48.062;7.474;2023-02-16T17:14:17;10.85;;;3.75;;
42260;SDS011;27926;48.062;7.474;2023-02-16T17:16:44;5.53;;;2.83;;
42260;SDS011;27926;48.062;7.474;2023-02-16T17:19:16;10.30;;;3.47;;
42260;SDS011;27926;48.062;7.474;2023-02-16T17:21:43;8.73;;;3.05;;
42260;SDS011;27926;48.062;7.474;2023-02-16T17:24:09;7.50;;;3.53;;
42260;SDS011;27926;48.062;7.474;2023-02-16T17:26:35;9.35;;;4.00;;